sensor_id;sensor_type;location;lat;lon;timestamp;temperature;humidity
25012;DHT22;13027;49.358;11.256;2022-08-20T00:01:40;17.30;99.90
25012;DHT22;13027;49.358;11.256;2022-08-20T00:04:06;17.20;99.90
25012;DHT22;13027;49.358;11.256;2022-08-20T00:06:31;17.20;99.90
25012;DHT22;13027;49.358;11.256;2022-08-20T00:08:58;17.30;99.90
25012;DHT22;13027;49.358;11.256;2022-08-20T00:11:24;17.30;99.90
25012;DHT22;13027;49.358;11.256;2022-08-20T00:13:52;18.20;99.90
25012;DHT22;13027;49.358;11.256;2022-08-20T00:16:18;17.20;99.90
25012;DHT22;13027;49.358;11.256;2022-08-20T00:18:45;17.30;99.90
25012;DHT22;13027;49.358;11.256;2022-08-20T00:21:12;17.30;99.90
25012;DHT22;13027;49.358;11.256;2022-08-20T00:23:39;17.30;99.90
25012;DHT22;13027;49.358;11.256;2022-08-20T00:26:05;17.40;99.90
25012;DHT22;13027;49.358;11.256;2022-08-20T00:28:31;17.30;99.90
25012;DHT22;13027;49.358;11.256;2022-08-20T00:30:57;17.30;99.90
25012;DHT22;13027;49.358;11.256;2022-08-20T00:33:23;17.30;99.90
25012;DHT22;13027;49.358;11.256;2022-08-20T00:35:53;17.30;99.90
25012;DHT22;13027;49.358;11.256;2022-08-20T00:38:20;17.30;99.90
25012;DHT22;13027;49.358;11.256;2022-08-20T00:40:50;17.30;99.90
25012;DHT22;13027;49.358;11.256;2022-08-20T00:43:27;17.20;99.90
25012;DHT22;13027;49.358;11.256;2022-08-20T00:45:53;17.30;99.90
25012;DHT22;13027;49.358;11.256;2022-08-20T00:48:21;17.30;99.90
25012;DHT22;13027;49.358;11.256;2022-08-20T00:50:46;17.30;99.90
25012;DHT22;13027;49.358;11.256;2022-08-20T00:53:12;17.30;99.90
25012;DHT22;13027;49.358;11.256;2022-08-20T00:55:38;17.30;99.90
25012;DHT22;13027;49.358;11.256;2022-08-20T00:58:04;17.30;99.90
25012;DHT22;13027;49.358;11.256;2022-08-20T01:00:41;17.30;99.90
25012;DHT22;13027;49.358;11.256;2022-08-20T01:03:09;17.30;99.90
25012;DHT22;13027;49.358;11.256;2022-08-20T01:05:36;17.20;99.90
25012;DHT22;13027;49.358;11.256;2022-08-20T01:08:02;17.20;99.90
25012;DHT22;13027;49.358;11.256;2022-08-20T01:10:31;17.20;99.90
25012;DHT22;13027;49.358;11.256;2022-08-20T01:12:59;17.20;99.90
25012;DHT22;13027;49.358;11.256;2022-08-20T01:15:25;17.20;99.90
25012;DHT22;13027;49.358;11.256;2022-08-20T01:17:53;17.30;99.90
25012;DHT22;13027;49.358;11.256;2022-08-20T01:20:20;17.20;99.90
25012;DHT22;13027;49.358;11.256;2022-08-20T01:22:49;17.20;99.90
25012;DHT22;13027;49.358;11.256;2022-08-20T01:28:04;17.30;99.90
25012;DHT22;13027;49.358;11.256;2022-08-20T01:30:31;17.30;99.90
25012;DHT22;13027;49.358;11.256;2022-08-20T01:32:56;17.30;99.90
25012;DHT22;13027;49.358;11.256;2022-08-20T01:35:22;17.40;99.90
25012;DHT22;13027;49.358;11.256;2022-08-20T01:37:48;17.30;99.90
25012;DHT22;13027;49.358;11.256;2022-08-20T01:40:15;17.30;99.90
25012;DHT22;13027;49.358;11.256;2022-08-20T01:42:43;17.40;99.90
25012;DHT22;13027;49.358;11.256;2022-08-20T01:45:11;17.30;99.90
25012;DHT22;13027;49.358;11.256;2022-08-20T01:47:36;17.30;99.90
25012;DHT22;13027;49.358;11.256;2022-08-20T01:50:25;17.30;99.90
25012;DHT22;13027;49.358;11.256;2022-08-20T01:52:59;17.40;99.90
25012;DHT22;13027;49.358;11.256;2022-08-20T01:55:25;17.30;99.90
25012;DHT22;13027;49.358;11.256;2022-08-20T01:57:52;17.30;99.90
25012;DHT22;13027;49.358;11.256;2022-08-20T02:00:18;17.30;99.90
25012;DHT22;13027;49.358;11.256;2022-08-20T02:02:44;17.10;99.90
25012;DHT22;13027;49.358;11.256;2022-08-20T02:05:10;17.40;99.90
25012;DHT22;13027;49.358;11.256;2022-08-20T02:07:36;17.40;99.90
25012;DHT22;13027;49.358;11.256;2022-08-20T02:10:03;17.40;99.90
25012;DHT22;13027;49.358;11.256;2022-08-20T02:12:29;17.40;99.90
25012;DHT22;13027;49.358;11.256;2022-08-20T02:14:55;17.40;99.90
25012;DHT22;13027;49.358;11.256;2022-08-20T02:17:21;17.40;99.90
25012;DHT22;13027;49.358;11.256;2022-08-20T02:19:50;17.30;99.90
25012;DHT22;13027;49.358;11.256;2022-08-20T02:22:19;17.30;99.90
25012;DHT22;13027;49.358;11.256;2022-08-20T02:24:45;17.30;99.90
25012;DHT22;13027;49.358;11.256;2022-08-20T02:27:11;17.30;99.90
25012;DHT22;13027;49.358;11.256;2022-08-20T02:29:37;17.30;99.90
25012;DHT22;13027;49.358;11.256;2022-08-20T02:32:03;17.30;99.90
25012;DHT22;13027;49.358;11.256;2022-08-20T02:34:30;17.40;99.90
25012;DHT22;13027;49.358;11.256;2022-08-20T02:36:56;17.30;99.90
25012;DHT22;13027;49.358;11.256;2022-08-20T02:39:21;17.40;99.90
25012;DHT22;13027;49.358;11.256;2022-08-20T02:41:47;17.30;99.90
25012;DHT22;13027;49.358;11.256;2022-08-20T02:44:14;17.30;99.90
25012;DHT22;13027;49.358;11.256;2022-08-20T02:46:44;17.20;99.90
25012;DHT22;13027;49.358;11.256;2022-08-20T02:49:10;17.30;99.90
25012;DHT22;13027;49.358;11.256;2022-08-20T02:51:35;17.30;99.90
25012;DHT22;13027;49.358;11.256;2022-08-20T02:54:01;17.30;99.90
25012;DHT22;13027;49.358;11.256;2022-08-20T02:56:26;17.30;99.90
25012;DHT22;13027;49.358;11.256;2022-08-20T02:58:52;17.30;99.90
25012;DHT22;13027;49.358;11.256;2022-08-20T03:01:18;17.30;99.90
25012;DHT22;13027;49.358;11.256;2022-08-20T03:03:44;17.30;99.90
25012;DHT22;13027;49.358;11.256;2022-08-20T03:06:10;17.30;99.90
25012;DHT22;13027;49.358;11.256;2022-08-20T03:08:36;17.30;99.90
25012;DHT22;13027;49.358;11.256;2022-08-20T03:11:02;17.30;99.90
25012;DHT22;13027;49.358;11.256;2022-08-20T03:13:28;17.30;99.90
25012;DHT22;13027;49.358;11.256;2022-08-20T03:15:55;17.30;99.90
25012;DHT22;13027;49.358;11.256;2022-08-20T03:18:22;17.30;99.90
25012;DHT22;13027;49.358;11.256;2022-08-20T03:20:48;17.30;99.90
25012;DHT22;13027;49.358;11.256;2022-08-20T03:23:14;17.30;99.90
25012;DHT22;13027;49.358;11.256;2022-08-20T03:25:40;17.30;99.90
25012;DHT22;13027;49.358;11.256;2022-08-20T03:28:06;17.30;99.90
25012;DHT22;13027;49.358;11.256;2022-08-20T03:30:32;17.30;99.90
25012;DHT22;13027;49.358;11.256;2022-08-20T03:32:58;17.30;99.90
25012;DHT22;13027;49.358;11.256;2022-08-20T03:35:24;17.30;99.90
25012;DHT22;13027;49.358;11.256;2022-08-20T03:37:50;17.20;99.90
25012;DHT22;13027;49.358;11.256;2022-08-20T03:40:26;17.20;99.90
25012;DHT22;13027;49.358;11.256;2022-08-20T03:42:52;17.20;99.90
25012;DHT22;13027;49.358;11.256;2022-08-20T03:45:18;17.20;99.90
25012;DHT22;13027;49.358;11.256;2022-08-20T03:47:44;17.20;99.90
25012;DHT22;13027;49.358;11.256;2022-08-20T03:50:10;17.20;99.90
25012;DHT22;13027;49.358;11.256;2022-08-20T03:52:35;17.20;99.90
25012;DHT22;13027;49.358;11.256;2022-08-20T03:55:01;17.30;99.90
25012;DHT22;13027;49.358;11.256;2022-08-20T03:57:27;17.40;99.90
25012;DHT22;13027;49.358;11.256;2022-08-20T03:59:53;17.30;99.90
25012;DHT22;13027;49.358;11.256;2022-08-20T04:02:18;17.40;99.90
25012;DHT22;13027;49.358;11.256;2022-08-20T04:04:44;17.30;99.90
25012;DHT22;13027;49.358;11.256;2022-08-20T04:07:10;17.30;99.90
25012;DHT22;13027;49.358;11.256;2022-08-20T04:09:37;17.30;99.90
25012;DHT22;13027;49.358;11.256;2022-08-20T04:12:04;17.30;99.90
25012;DHT22;13027;49.358;11.256;2022-08-20T04:14:30;17.20;99.90
25012;DHT22;13027;49.358;11.256;2022-08-20T04:16:56;17.30;99.90
25012;DHT22;13027;49.358;11.256;2022-08-20T04:19:21;17.30;99.90
25012;DHT22;13027;49.358;11.256;2022-08-20T04:21:47;17.30;99.90
25012;DHT22;13027;49.358;11.256;2022-08-20T04:24:12;17.30;99.90
25012;DHT22;13027;49.358;11.256;2022-08-20T04:26:40;17.30;99.90
25012;DHT22;13027;49.358;11.256;2022-08-20T04:29:06;17.30;99.90
25012;DHT22;13027;49.358;11.256;2022-08-20T04:31:32;17.20;99.90
25012;DHT22;13027;49.358;11.256;2022-08-20T04:34:01;17.20;99.90
25012;DHT22;13027;49.358;11.256;2022-08-20T04:36:27;17.20;99.90
25012;DHT22;13027;49.358;11.256;2022-08-20T04:38:53;17.30;99.90
25012;DHT22;13027;49.358;11.256;2022-08-20T04:41:19;17.30;99.90
25012;DHT22;13027;49.358;11.256;2022-08-20T04:43:45;17.30;99.90
25012;DHT22;13027;49.358;11.256;2022-08-20T04:46:11;17.30;99.90
25012;DHT22;13027;49.358;11.256;2022-08-20T04:48:38;17.40;99.90
25012;DHT22;13027;49.358;11.256;2022-08-20T04:51:05;17.40;99.90
25012;DHT22;13027;49.358;11.256;2022-08-20T04:53:31;17.50;99.90
25012;DHT22;13027;49.358;11.256;2022-08-20T04:55:58;17.50;99.90
25012;DHT22;13027;49.358;11.256;2022-08-20T04:58:25;17.40;99.90
25012;DHT22;13027;49.358;11.256;2022-08-20T05:00:53;17.40;99.90
25012;DHT22;13027;49.358;11.256;2022-08-20T05:03:19;17.40;99.90
25012;DHT22;13027;49.358;11.256;2022-08-20T05:05:45;17.50;99.90
25012;DHT22;13027;49.358;11.256;2022-08-20T05:08:11;17.50;99.90
25012;DHT22;13027;49.358;11.256;2022-08-20T05:10:38;17.50;99.90
25012;DHT22;13027;49.358;11.256;2022-08-20T05:13:04;17.50;99.90
25012;DHT22;13027;49.358;11.256;2022-08-20T05:15:30;17.60;99.90
25012;DHT22;13027;49.358;11.256;2022-08-20T05:17:57;17.50;99.90
25012;DHT22;13027;49.358;11.256;2022-08-20T05:20:30;17.70;99.90
25012;DHT22;13027;49.358;11.256;2022-08-20T05:22:58;17.60;99.90
25012;DHT22;13027;49.358;11.256;2022-08-20T05:25:23;17.70;99.90
25012;DHT22;13027;49.358;11.256;2022-08-20T05:27:54;17.70;99.90
25012;DHT22;13027;49.358;11.256;2022-08-20T05:30:19;17.70;99.90
25012;DHT22;13027;49.358;11.256;2022-08-20T05:32:45;17.70;99.90
25012;DHT22;13027;49.358;11.256;2022-08-20T05:35:11;17.70;99.90
25012;DHT22;13027;49.358;11.256;2022-08-20T05:37:37;17.80;99.90
25012;DHT22;13027;49.358;11.256;2022-08-20T05:40:13;17.80;99.90
25012;DHT22;13027;49.358;11.256;2022-08-20T05:42:39;17.70;99.90
25012;DHT22;13027;49.358;11.256;2022-08-20T05:45:05;17.80;99.90
25012;DHT22;13027;49.358;11.256;2022-08-20T05:47:31;17.90;99.90
25012;DHT22;13027;49.358;11.256;2022-08-20T05:49:56;17.80;99.90
25012;DHT22;13027;49.358;11.256;2022-08-20T05:52:22;17.90;99.90
25012;DHT22;13027;49.358;11.256;2022-08-20T05:54:48;17.90;99.90
25012;DHT22;13027;49.358;11.256;2022-08-20T05:57:16;17.90;99.90
25012;DHT22;13027;49.358;11.256;2022-08-20T05:59:44;18.00;99.90
25012;DHT22;13027;49.358;11.256;2022-08-20T06:02:09;18.00;99.90
25012;DHT22;13027;49.358;11.256;2022-08-20T06:04:54;17.90;99.90
25012;DHT22;13027;49.358;11.256;2022-08-20T06:07:20;17.90;99.90
25012;DHT22;13027;49.358;11.256;2022-08-20T06:09:47;17.90;99.90
25012;DHT22;13027;49.358;11.256;2022-08-20T06:12:13;17.90;99.90
25012;DHT22;13027;49.358;11.256;2022-08-20T06:14:39;18.00;99.90
25012;DHT22;13027;49.358;11.256;2022-08-20T06:17:09;18.00;99.90
25012;DHT22;13027;49.358;11.256;2022-08-20T06:19:35;18.00;99.90
25012;DHT22;13027;49.358;11.256;2022-08-20T06:22:01;18.10;99.90
25012;DHT22;13027;49.358;11.256;2022-08-20T06:24:28;18.10;99.90
25012;DHT22;13027;49.358;11.256;2022-08-20T06:26:54;18.10;99.90
25012;DHT22;13027;49.358;11.256;2022-08-20T06:29:19;18.10;99.90
25012;DHT22;13027;49.358;11.256;2022-08-20T06:31:45;18.20;99.90
25012;DHT22;13027;49.358;11.256;2022-08-20T06:34:10;18.20;99.90
25012;DHT22;13027;49.358;11.256;2022-08-20T06:36:36;18.20;99.90
25012;DHT22;13027;49.358;11.256;2022-08-20T06:39:02;18.10;99.90
25012;DHT22;13027;49.358;11.256;2022-08-20T06:41:28;18.20;99.90
25012;DHT22;13027;49.358;11.256;2022-08-20T06:43:54;18.30;99.90
25012;DHT22;13027;49.358;11.256;2022-08-20T06:46:20;18.30;99.90
25012;DHT22;13027;49.358;11.256;2022-08-20T06:48:47;18.30;99.90
25012;DHT22;13027;49.358;11.256;2022-08-20T06:51:13;18.40;99.90
25012;DHT22;13027;49.358;11.256;2022-08-20T06:53:38;18.40;99.90
25012;DHT22;13027;49.358;11.256;2022-08-20T06:56:06;18.40;99.90
25012;DHT22;13027;49.358;11.256;2022-08-20T06:58:32;18.50;99.90
25012;DHT22;13027;49.358;11.256;2022-08-20T07:00:57;18.50;99.90
25012;DHT22;13027;49.358;11.256;2022-08-20T07:03:24;18.60;99.90
25012;DHT22;13027;49.358;11.256;2022-08-20T07:05:50;18.60;99.90
25012;DHT22;13027;49.358;11.256;2022-08-20T07:08:16;18.80;99.90
25012;DHT22;13027;49.358;11.256;2022-08-20T07:10:43;18.90;99.90
25012;DHT22;13027;49.358;11.256;2022-08-20T07:13:09;18.90;99.90
25012;DHT22;13027;49.358;11.256;2022-08-20T07:15:36;18.80;99.90
25012;DHT22;13027;49.358;11.256;2022-08-20T07:18:03;18.90;99.90
25012;DHT22;13027;49.358;11.256;2022-08-20T07:20:30;19.10;99.90
25012;DHT22;13027;49.358;11.256;2022-08-20T07:22:56;19.20;99.90
25012;DHT22;13027;49.358;11.256;2022-08-20T07:25:22;19.20;99.90
25012;DHT22;13027;49.358;11.256;2022-08-20T07:27:48;19.20;99.90
25012;DHT22;13027;49.358;11.256;2022-08-20T07:30:16;19.20;99.90
25012;DHT22;13027;49.358;11.256;2022-08-20T07:33:01;19.20;99.90
25012;DHT22;13027;49.358;11.256;2022-08-20T07:35:26;19.20;99.90
25012;DHT22;13027;49.358;11.256;2022-08-20T07:37:52;19.40;99.90
25012;DHT22;13027;49.358;11.256;2022-08-20T07:40:23;19.50;99.90
25012;DHT22;13027;49.358;11.256;2022-08-20T07:42:55;19.40;99.90
25012;DHT22;13027;49.358;11.256;2022-08-20T07:45:21;19.40;99.90
25012;DHT22;13027;49.358;11.256;2022-08-20T07:47:46;19.50;99.90
25012;DHT22;13027;49.358;11.256;2022-08-20T07:50:13;19.50;99.90
25012;DHT22;13027;49.358;11.256;2022-08-20T07:52:39;19.40;99.90
25012;DHT22;13027;49.358;11.256;2022-08-20T07:55:06;19.50;99.90
25012;DHT22;13027;49.358;11.256;2022-08-20T07:57:32;19.60;99.90
25012;DHT22;13027;49.358;11.256;2022-08-20T07:59:57;19.60;99.90
25012;DHT22;13027;49.358;11.256;2022-08-20T08:02:24;19.70;99.90
25012;DHT22;13027;49.358;11.256;2022-08-20T08:04:50;19.60;99.90
25012;DHT22;13027;49.358;11.256;2022-08-20T08:07:16;19.70;99.90
25012;DHT22;13027;49.358;11.256;2022-08-20T08:09:42;19.60;99.90
25012;DHT22;13027;49.358;11.256;2022-08-20T08:12:09;19.60;99.90
25012;DHT22;13027;49.358;11.256;2022-08-20T08:14:37;19.60;99.90
25012;DHT22;13027;49.358;11.256;2022-08-20T08:17:04;19.60;99.90
25012;DHT22;13027;49.358;11.256;2022-08-20T08:19:30;19.60;99.90
25012;DHT22;13027;49.358;11.256;2022-08-20T08:22:00;19.70;99.90
25012;DHT22;13027;49.358;11.256;2022-08-20T08:24:26;19.70;99.90
25012;DHT22;13027;49.358;11.256;2022-08-20T08:26:52;19.70;99.90
25012;DHT22;13027;49.358;11.256;2022-08-20T08:29:18;19.70;99.90
25012;DHT22;13027;49.358;11.256;2022-08-20T08:31:43;19.80;99.90
25012;DHT22;13027;49.358;11.256;2022-08-20T08:34:09;19.70;99.90
25012;DHT22;13027;49.358;11.256;2022-08-20T08:36:34;19.70;99.90
25012;DHT22;13027;49.358;11.256;2022-08-20T08:39:00;19.60;99.90
25012;DHT22;13027;49.358;11.256;2022-08-20T08:41:30;19.70;99.90
25012;DHT22;13027;49.358;11.256;2022-08-20T08:44:06;19.70;99.90
25012;DHT22;13027;49.358;11.256;2022-08-20T08:46:40;19.70;99.90
25012;DHT22;13027;49.358;11.256;2022-08-20T08:49:08;19.70;99.90
25012;DHT22;13027;49.358;11.256;2022-08-20T08:51:36;19.50;99.90
25012;DHT22;13027;49.358;11.256;2022-08-20T08:54:04;19.60;99.90
25012;DHT22;13027;49.358;11.256;2022-08-20T08:56:32;19.70;99.90
25012;DHT22;13027;49.358;11.256;2022-08-20T08:58:59;19.70;99.90
25012;DHT22;13027;49.358;11.256;2022-08-20T09:01:26;19.80;99.90
25012;DHT22;13027;49.358;11.256;2022-08-20T09:03:52;19.90;99.90
25012;DHT22;13027;49.358;11.256;2022-08-20T09:06:19;19.90;99.90
25012;DHT22;13027;49.358;11.256;2022-08-20T09:08:48;20.00;99.90
25012;DHT22;13027;49.358;11.256;2022-08-20T09:11:15;20.00;99.90
25012;DHT22;13027;49.358;11.256;2022-08-20T09:13:42;20.00;99.90
25012;DHT22;13027;49.358;11.256;2022-08-20T09:16:08;19.90;99.90
25012;DHT22;13027;49.358;11.256;2022-08-20T09:18:33;19.90;99.90
25012;DHT22;13027;49.358;11.256;2022-08-20T09:20:59;19.80;99.90
25012;DHT22;13027;49.358;11.256;2022-08-20T09:23:25;19.80;99.90
25012;DHT22;13027;49.358;11.256;2022-08-20T09:25:50;19.90;99.90
25012;DHT22;13027;49.358;11.256;2022-08-20T09:28:15;19.90;99.90
25012;DHT22;13027;49.358;11.256;2022-08-20T09:30:41;19.90;99.90
25012;DHT22;13027;49.358;11.256;2022-08-20T09:33:07;20.10;99.90
25012;DHT22;13027;49.358;11.256;2022-08-20T09:35:32;20.10;99.90
25012;DHT22;13027;49.358;11.256;2022-08-20T09:37:59;20.10;99.90
25012;DHT22;13027;49.358;11.256;2022-08-20T09:40:24;20.10;99.90
25012;DHT22;13027;49.358;11.256;2022-08-20T09:42:50;20.20;99.90
25012;DHT22;13027;49.358;11.256;2022-08-20T09:45:16;20.20;99.90
25012;DHT22;13027;49.358;11.256;2022-08-20T09:47:41;20.40;99.90
25012;DHT22;13027;49.358;11.256;2022-08-20T09:50:07;20.40;99.90
25012;DHT22;13027;49.358;11.256;2022-08-20T09:52:34;20.60;99.90
25012;DHT22;13027;49.358;11.256;2022-08-20T09:55:03;20.90;99.90
25012;DHT22;13027;49.358;11.256;2022-08-20T09:57:29;20.80;99.90
25012;DHT22;13027;49.358;11.256;2022-08-20T09:59:59;20.70;99.90
25012;DHT22;13027;49.358;11.256;2022-08-20T10:02:24;20.80;99.90
25012;DHT22;13027;49.358;11.256;2022-08-20T10:04:50;20.80;99.90
25012;DHT22;13027;49.358;11.256;2022-08-20T10:07:16;20.80;99.90
25012;DHT22;13027;49.358;11.256;2022-08-20T10:09:42;20.90;99.90
25012;DHT22;13027;49.358;11.256;2022-08-20T10:12:07;21.00;99.90
25012;DHT22;13027;49.358;11.256;2022-08-20T10:14:33;21.00;99.90
25012;DHT22;13027;49.358;11.256;2022-08-20T10:16:59;21.00;99.90
25012;DHT22;13027;49.358;11.256;2022-08-20T10:19:25;20.90;99.90
25012;DHT22;13027;49.358;11.256;2022-08-20T10:21:51;21.00;99.90
25012;DHT22;13027;49.358;11.256;2022-08-20T10:24:17;21.20;99.90
25012;DHT22;13027;49.358;11.256;2022-08-20T10:26:43;21.30;99.90
25012;DHT22;13027;49.358;11.256;2022-08-20T10:29:09;21.40;99.90
25012;DHT22;13027;49.358;11.256;2022-08-20T10:31:35;21.50;99.90
25012;DHT22;13027;49.358;11.256;2022-08-20T10:34:00;21.60;99.90
25012;DHT22;13027;49.358;11.256;2022-08-20T10:36:26;21.70;99.90
25012;DHT22;13027;49.358;11.256;2022-08-20T10:38:51;21.70;99.90
25012;DHT22;13027;49.358;11.256;2022-08-20T10:41:17;21.70;99.90
25012;DHT22;13027;49.358;11.256;2022-08-20T10:43:44;21.70;99.90
25012;DHT22;13027;49.358;11.256;2022-08-20T10:46:10;21.50;99.90
25012;DHT22;13027;49.358;11.256;2022-08-20T10:48:35;21.50;99.90
25012;DHT22;13027;49.358;11.256;2022-08-20T10:51:01;21.60;99.90
25012;DHT22;13027;49.358;11.256;2022-08-20T10:53:26;21.60;99.90
25012;DHT22;13027;49.358;11.256;2022-08-20T10:55:53;21.90;99.90
25012;DHT22;13027;49.358;11.256;2022-08-20T10:58:19;22.30;99.90
25012;DHT22;13027;49.358;11.256;2022-08-20T11:00:44;22.30;99.90
25012;DHT22;13027;49.358;11.256;2022-08-20T11:03:11;22.30;99.90
25012;DHT22;13027;49.358;11.256;2022-08-20T11:05:36;22.40;99.90
25012;DHT22;13027;49.358;11.256;2022-08-20T11:08:02;22.60;99.90
25012;DHT22;13027;49.358;11.256;2022-08-20T11:10:28;22.70;99.90
25012;DHT22;13027;49.358;11.256;2022-08-20T11:12:54;22.80;99.90
25012;DHT22;13027;49.358;11.256;2022-08-20T11:15:20;23.10;99.90
25012;DHT22;13027;49.358;11.256;2022-08-20T11:17:46;23.30;99.90
25012;DHT22;13027;49.358;11.256;2022-08-20T11:20:12;23.10;99.90
25012;DHT22;13027;49.358;11.256;2022-08-20T11:22:38;23.00;99.90
25012;DHT22;13027;49.358;11.256;2022-08-20T11:25:05;23.10;99.90
25012;DHT22;13027;49.358;11.256;2022-08-20T11:27:32;23.30;99.90
25012;DHT22;13027;49.358;11.256;2022-08-20T11:29:58;23.30;99.90
25012;DHT22;13027;49.358;11.256;2022-08-20T11:32:24;23.00;99.90
25012;DHT22;13027;49.358;11.256;2022-08-20T11:34:49;23.00;99.90
25012;DHT22;13027;49.358;11.256;2022-08-20T11:37:16;22.80;99.90
25012;DHT22;13027;49.358;11.256;2022-08-20T11:39:41;23.10;99.90
25012;DHT22;13027;49.358;11.256;2022-08-20T11:42:07;23.10;99.90
25012;DHT22;13027;49.358;11.256;2022-08-20T11:44:32;23.00;99.90
25012;DHT22;13027;49.358;11.256;2022-08-20T11:46:59;23.20;99.90
25012;DHT22;13027;49.358;11.256;2022-08-20T11:49:27;22.90;99.90
25012;DHT22;13027;49.358;11.256;2022-08-20T11:51:53;23.00;99.90
25012;DHT22;13027;49.358;11.256;2022-08-20T11:54:18;23.20;99.90
25012;DHT22;13027;49.358;11.256;2022-08-20T11:56:44;23.10;99.90
25012;DHT22;13027;49.358;11.256;2022-08-20T11:59:10;23.00;99.90
25012;DHT22;13027;49.358;11.256;2022-08-20T12:01:35;23.00;99.90
25012;DHT22;13027;49.358;11.256;2022-08-20T12:04:01;23.10;99.90
25012;DHT22;13027;49.358;11.256;2022-08-20T12:06:26;23.20;99.90
25012;DHT22;13027;49.358;11.256;2022-08-20T12:08:52;23.40;99.90
25012;DHT22;13027;49.358;11.256;2022-08-20T12:11:17;23.40;99.90
25012;DHT22;13027;49.358;11.256;2022-08-20T12:13:43;23.60;99.90
25012;DHT22;13027;49.358;11.256;2022-08-20T12:16:08;23.50;99.90
25012;DHT22;13027;49.358;11.256;2022-08-20T12:18:34;23.60;99.90
25012;DHT22;13027;49.358;11.256;2022-08-20T12:21:00;23.70;99.90
25012;DHT22;13027;49.358;11.256;2022-08-20T12:23:25;23.70;99.90
25012;DHT22;13027;49.358;11.256;2022-08-20T12:25:51;23.60;99.90
25012;DHT22;13027;49.358;11.256;2022-08-20T12:28:16;23.70;99.90
25012;DHT22;13027;49.358;11.256;2022-08-20T12:30:42;23.90;99.90
25012;DHT22;13027;49.358;11.256;2022-08-20T12:33:07;24.00;99.90
25012;DHT22;13027;49.358;11.256;2022-08-20T12:35:34;23.90;99.90
25012;DHT22;13027;49.358;11.256;2022-08-20T12:38:04;23.80;99.90
25012;DHT22;13027;49.358;11.256;2022-08-20T12:40:29;23.70;99.90
25012;DHT22;13027;49.358;11.256;2022-08-20T12:42:55;23.70;99.90
25012;DHT22;13027;49.358;11.256;2022-08-20T12:45:21;23.70;99.90
25012;DHT22;13027;49.358;11.256;2022-08-20T12:47:46;23.70;99.90
25012;DHT22;13027;49.358;11.256;2022-08-20T12:50:13;23.60;99.90
25012;DHT22;13027;49.358;11.256;2022-08-20T12:52:39;23.50;99.90
25012;DHT22;13027;49.358;11.256;2022-08-20T12:55:05;23.80;99.90
25012;DHT22;13027;49.358;11.256;2022-08-20T12:57:32;23.50;99.90
25012;DHT22;13027;49.358;11.256;2022-08-20T13:00:06;23.50;99.90
25012;DHT22;13027;49.358;11.256;2022-08-20T13:02:32;23.40;99.90
25012;DHT22;13027;49.358;11.256;2022-08-20T13:04:57;23.30;99.90
25012;DHT22;13027;49.358;11.256;2022-08-20T13:07:23;23.30;99.90
25012;DHT22;13027;49.358;11.256;2022-08-20T13:09:48;23.50;99.90
25012;DHT22;13027;49.358;11.256;2022-08-20T13:12:14;23.40;99.90
25012;DHT22;13027;49.358;11.256;2022-08-20T13:14:40;23.40;99.90
25012;DHT22;13027;49.358;11.256;2022-08-20T13:17:06;23.40;99.90
25012;DHT22;13027;49.358;11.256;2022-08-20T13:19:32;23.10;99.90
25012;DHT22;13027;49.358;11.256;2022-08-20T13:21:58;22.80;99.90
25012;DHT22;13027;49.358;11.256;2022-08-20T13:24:24;22.50;99.90
25012;DHT22;13027;49.358;11.256;2022-08-20T13:26:50;22.10;99.90
25012;DHT22;13027;49.358;11.256;2022-08-20T13:29:16;22.00;99.90
25012;DHT22;13027;49.358;11.256;2022-08-20T13:31:41;22.00;99.90
25012;DHT22;13027;49.358;11.256;2022-08-20T13:34:07;22.20;99.90
25012;DHT22;13027;49.358;11.256;2022-08-20T13:36:33;22.20;99.90
25012;DHT22;13027;49.358;11.256;2022-08-20T13:38:59;22.00;99.90
25012;DHT22;13027;49.358;11.256;2022-08-20T13:41:25;22.00;99.90
25012;DHT22;13027;49.358;11.256;2022-08-20T13:43:50;21.80;99.90
25012;DHT22;13027;49.358;11.256;2022-08-20T13:46:16;21.80;99.90
25012;DHT22;13027;49.358;11.256;2022-08-20T13:48:42;21.80;99.90
25012;DHT22;13027;49.358;11.256;2022-08-20T13:51:07;21.70;99.90
25012;DHT22;13027;49.358;11.256;2022-08-20T13:53:33;21.70;99.90
25012;DHT22;13027;49.358;11.256;2022-08-20T13:55:58;21.60;99.90
25012;DHT22;13027;49.358;11.256;2022-08-20T13:58:24;21.60;99.90
25012;DHT22;13027;49.358;11.256;2022-08-20T14:00:49;21.60;99.90
25012;DHT22;13027;49.358;11.256;2022-08-20T14:03:15;21.70;99.90
25012;DHT22;13027;49.358;11.256;2022-08-20T14:05:41;21.70;99.90
25012;DHT22;13027;49.358;11.256;2022-08-20T14:08:11;22.00;99.90
25012;DHT22;13027;49.358;11.256;2022-08-20T14:10:37;22.20;99.90
25012;DHT22;13027;49.358;11.256;2022-08-20T14:13:03;22.40;99.90
25012;DHT22;13027;49.358;11.256;2022-08-20T14:15:31;22.50;99.90
25012;DHT22;13027;49.358;11.256;2022-08-20T14:17:56;22.80;99.90
25012;DHT22;13027;49.358;11.256;2022-08-20T14:20:23;22.80;99.90
25012;DHT22;13027;49.358;11.256;2022-08-20T14:22:49;23.00;99.90
25012;DHT22;13027;49.358;11.256;2022-08-20T14:25:15;23.20;99.90
25012;DHT22;13027;49.358;11.256;2022-08-20T14:27:41;23.20;99.90
25012;DHT22;13027;49.358;11.256;2022-08-20T14:30:08;23.30;99.90
25012;DHT22;13027;49.358;11.256;2022-08-20T14:32:34;23.20;99.90
25012;DHT22;13027;49.358;11.256;2022-08-20T14:35:00;23.10;99.90
25012;DHT22;13027;49.358;11.256;2022-08-20T14:37:30;23.00;99.90
25012;DHT22;13027;49.358;11.256;2022-08-20T14:39:57;23.10;99.90
25012;DHT22;13027;49.358;11.256;2022-08-20T14:42:23;23.10;99.90
25012;DHT22;13027;49.358;11.256;2022-08-20T14:44:51;23.10;99.90
25012;DHT22;13027;49.358;11.256;2022-08-20T14:47:18;23.20;99.90
25012;DHT22;13027;49.358;11.256;2022-08-20T14:49:45;23.20;99.90
25012;DHT22;13027;49.358;11.256;2022-08-20T14:52:11;23.30;99.90
25012;DHT22;13027;49.358;11.256;2022-08-20T14:54:37;23.40;99.90
25012;DHT22;13027;49.358;11.256;2022-08-20T14:57:03;23.40;99.90
25012;DHT22;13027;49.358;11.256;2022-08-20T14:59:29;23.30;99.90
25012;DHT22;13027;49.358;11.256;2022-08-20T15:01:54;23.30;99.90
25012;DHT22;13027;49.358;11.256;2022-08-20T15:04:20;23.10;99.90
25012;DHT22;13027;49.358;11.256;2022-08-20T15:06:45;23.00;99.90
25012;DHT22;13027;49.358;11.256;2022-08-20T15:09:11;22.90;99.90
25012;DHT22;13027;49.358;11.256;2022-08-20T15:11:37;22.90;99.90
25012;DHT22;13027;49.358;11.256;2022-08-20T15:14:04;22.80;99.90